Página principal
METAR-TAF:

METAR-TAF

Aeroportos :

Dubai, Emirados Árabes Unidos

Aeroporto Internacional de Dubai

latitude: 25-15-10N, longitude: 055-21-52E, altura: 8 m

Observação actual do tempo

O boletim foi feito há 56 minutos, às 23:00 UTC
Vento 5 kt de sul, variando entre su-sudeste e sudoeste
Temperatura 34°C
Humidade 56%
Pressão 999 hPa
Visibilidade 10 km ou mais
sem nuvens abaixo de 1500 metros e sem cumulonimbus

METAR: OMDB 182300Z 18005KT 160V220 CAVOK 34/24 Q0999 NOSIG

Hora: 03:56 (23:56 UTC)

Previsão

O boletim foi feito há 1 hora e 3 minutos, às 22:53 UTC
Previsão válida de 19 às 00 UTC a 20 às 06 UTC
Vento 5 kt de sul
Visibilidade 10 km ou mais
sem nuvens abaixo de 1500 metros e sem cumulonimbus
Tornando-se
de 19 às 06 UTC a 19 às 08 UTC
Vento 13 kt de nor-noroeste
Tornando-se
de 19 às 16 UTC a 19 às 18 UTC
Vento 7 kt de este

TAF: OMDB 182253Z 1900/2006 17005KT CAVOK BECMG 1906/1908 34013KT BECMG 1916/1918 08007KT

Observações e previsões do tempo de mais de 4000 aeroportos (mensagens METAR e TAF).

As estações disponíveis são os pontos amarelos e vermelhos sobre o mapa.

Mova o rato sobre o mapa para ver o nome da estação.

Depois clique no ponto para visualizar as observações e previsões meteorológicas.

Para alterar o mapa : clique nos botões verdes com uma cruz preta para aumentar o zoom; no botão verde com uma pitada de zoom; ou nas setas verdes para mapas adjacentes.


METAR-TAF: